Time;durP1;ratioP1;P1;durP2;ratioP2;P2;SDS_P1;SDS_P2;PMS_P1;PMS_P2;Temp;Humidity;BMP_temperature;BMP_pressure;BME280_temperature;BME280_humidity;BME280_pressure;Samples;Min_cycle;Max_cycle;Signal;HPM_P1;HPM_P2
2021/10/14 00:01:37;;;;;;;22.50;12.85;;;;;;;4.14;92.93;99353.70;1724142;83;20998;-78
2021/10/14 00:04:04;;;;;;;27.50;12.85;;;;;;;4.07;92.88;99358.08;1695835;83;21011;-78
2021/10/14 00:06:30;;;;;;;24.30;11.68;;;;;;;4.00;93.08;99363.02;1724000;83;21011;-77
2021/10/14 00:08:57;;;;;;;25.02;12.70;;;;;;;3.88;93.77;99369.30;1724462;83;21034;-77
2021/10/14 00:11:24;;;;;;;20.62;11.12;;;;;;;3.81;94.15;99368.78;1751085;81;21323;-78
2021/10/14 00:13:50;;;;;;;22.58;12.58;;;;;;;3.73;94.72;99367.44;1755682;81;21951;-77
2021/10/14 00:16:17;;;;;;;21.85;11.15;;;;;;;3.73;94.72;99367.44;1755946;81;20943;-79
2021/10/14 00:18:43;;;;;;;24.95;13.28;;;;;;;3.71;95.46;99373.69;1746614;81;21008;-78
2021/10/14 00:21:10;;;;;;;29.55;14.60;;;;;;;3.68;95.62;99377.48;1733451;81;21068;-77
2021/10/14 00:23:36;;;;;;;26.25;12.98;;;;;;;3.62;95.72;99373.97;1724136;83;21546;-77
2021/10/14 00:26:02;;;;;;;28.67;13.53;;;;;;;3.50;95.79;99381.05;1724057;83;21516;-77
2021/10/14 00:28:29;;;;;;;21.45;11.57;;;;;;;3.50;95.79;99381.05;1695506;83;20964;-78
2021/10/14 00:30:56;;;;;;;24.37;13.20;;;;;;;3.44;96.21;99378.09;1724212;83;21001;-77
2021/10/14 00:33:23;;;;;;;22.62;12.58;;;;;;;3.39;96.36;99378.64;1724142;83;21515;-76
2021/10/14 00:35:49;;;;;;;24.92;12.68;;;;;;;3.31;96.67;99376.74;1724015;83;21524;-77
2021/10/14 00:38:16;;;;;;;22.55;11.90;;;;;;;3.18;96.96;99373.22;1724267;83;21044;-76
2021/10/14 00:40:44;;;;;;;22.90;12.78;;;;;;;3.18;96.96;99373.22;1724510;83;21029;-76
2021/10/14 00:43:11;;;;;;;22.25;12.95;;;;;;;3.14;96.91;99368.61;1724087;83;21543;-77
2021/10/14 00:45:39;;;;;;;23.98;13.28;;;;;;;3.09;96.97;99384.34;1724183;83;21544;-76
2021/10/14 00:48:06;;;;;;;27.07;13.55;;;;;;;3.03;97.10;99385.41;1724185;83;21076;-76
2021/10/14 00:50:32;;;;;;;22.17;12.10;;;;;;;3.01;97.11;99385.41;1724184;83;21492;-76
2021/10/14 00:52:59;;;;;;;26.12;12.35;;;;;;;2.96;97.37;99397.88;1724079;83;21055;-77
2021/10/14 00:55:25;;;;;;;27.35;13.10;;;;;;;2.93;97.76;99407.09;1722559;83;21034;-76
2021/10/14 00:57:51;;;;;;;28.30;14.47;;;;;;;2.89;99.01;99412.24;1688697;85;21106;-77
2021/10/14 01:00:18;;;;;;;22.87;12.10;;;;;;;2.89;99.01;99412.24;1721152;83;21058;-76
2021/10/14 01:02:45;;;;;;;24.80;11.85;;;;;;;2.86;99.71;99425.55;1688435;85;21586;-76
2021/10/14 01:05:11;;;;;;;27.27;12.50;;;;;;;2.86;99.71;99425.55;1721028;83;21050;-76
2021/10/14 01:07:39;;;;;;;23.60;12.63;;;;;;;2.81;99.89;99425.00;1688570;85;21024;-75
2021/10/14 01:10:08;;;;;;;21.52;12.65;;;;;;;2.79;100.00;99423.09;1730958;81;21009;-76
2021/10/14 01:12:35;;;;;;;28.42;14.03;;;;;;;2.77;100.00;99434.75;1752698;81;20962;-75
2021/10/14 01:15:19;;;;;;;22.50;12.70;;;;;;;2.72;100.00;99433.38;1752612;81;21548;-76
2021/10/14 01:17:47;;;;;;;30.17;13.95;;;;;;;2.72;100.00;99436.63;1753074;81;20928;-78
2021/10/14 01:20:14;;;;;;;31.82;13.88;;;;;;;2.68;100.00;99431.47;1753191;81;20943;-79
2021/10/14 01:22:40;;;;;;;31.02;14.73;;;;;;;2.65;100.00;99431.45;1753250;81;20974;-75
2021/10/14 01:25:08;;;;;;;21.10;12.58;;;;;;;2.61;100.00;99437.95;1752918;81;21054;-76
2021/10/14 01:27:35;;;;;;;27.82;13.10;;;;;;;2.57;100.00;99436.03;1753076;81;21139;-75
2021/10/14 01:30:03;;;;;;;24.10;12.68;;;;;;;2.54;100.00;99446.86;1752911;81;20943;-77
2021/10/14 01:32:30;;;;;;;26.15;12.65;;;;;;;2.49;100.00;99454.97;1752966;81;20896;-75
2021/10/14 01:34:56;;;;;;;32.67;13.43;;;;;;;2.45;100.00;99450.34;1753022;81;20951;-75
2021/10/14 01:37:23;;;;;;;28.17;13.53;;;;;;;2.43;100.00;99456.03;1753081;81;21002;-75
2021/10/14 01:39:50;;;;;;;25.77;11.95;;;;;;;2.40;100.00;99456.56;1752768;81;21150;-78
2021/10/14 01:42:16;;;;;;;26.68;14.95;;;;;;;2.38;100.00;99457.36;1752627;81;20896;-77
2021/10/14 01:44:43;;;;;;;28.07;13.72;;;;;;;2.36;100.00;99457.35;1752831;81;20971;-76
2021/10/14 01:47:10;;;;;;;27.82;13.45;;;;;;;2.33;100.00;99455.45;1753145;81;20935;-77
2021/10/14 01:49:38;;;;;;;28.23;14.65;;;;;;;2.30;100.00;99457.36;1752947;81;20891;-77
2021/10/14 01:52:05;;;;;;;22.75;13.03;;;;;;;2.29;100.00;99461.69;1752939;81;21941;-78
2021/10/14 01:54:31;;;;;;;23.02;12.23;;;;;;;2.25;100.00;99464.64;1752246;81;20982;-77
2021/10/14 01:56:58;;;;;;;26.42;14.07;;;;;;;2.23;100.00;99465.44;1742966;82;20971;-76
2021/10/14 01:59:24;;;;;;;27.10;14.00;;;;;;;2.19;100.00;99471.92;1742736;82;21059;-78
2021/10/14 02:01:51;;;;;;;29.02;14.13;;;;;;;2.16;100.00;99468.39;1744877;82;21499;-77
2021/10/14 02:04:18;;;;;;;22.30;12.95;;;;;;;2.14;100.00;99462.95;1744722;82;21151;-77
2021/10/14 02:06:44;;;;;;;26.87;13.93;;;;;;;2.10;100.00;99470.79;1745518;82;20950;-78
2021/10/14 02:09:11;;;;;;;29.27;14.58;;;;;;;2.07;100.00;99472.66;1746168;82;20900;-74
2021/10/14 02:11:37;;;;;;;22.20;12.82;;;;;;;2.06;100.00;99474.28;1751279;82;20939;-75
2021/10/14 02:14:04;;;;;;;28.80;14.45;;;;;;;2.03;100.00;99470.20;1751684;82;20936;-78
2021/10/14 02:16:31;;;;;;;24.65;13.05;;;;;;;2.01;100.00;99471.54;1751377;82;21175;-80
2021/10/14 02:18:58;;;;;;;29.57;14.80;;;;;;;1.98;100.00;99475.58;1751429;82;20884;-79
2021/10/14 02:21:24;;;;;;;22.40;13.93;;;;;;;1.96;100.00;99474.48;1751897;82;20920;-81
2021/10/14 02:23:51;;;;;;;21.20;12.88;;;;;;;1.94;100.00;99478.53;1751322;82;20920;-79
2021/10/14 02:26:17;;;;;;;30.37;14.83;;;;;;;1.91;100.00;99482.58;1752026;82;20896;-79
2021/10/14 02:28:44;;;;;;;25.80;15.10;;;;;;;1.90;100.00;99483.66;1751394;82;21163;-77
2021/10/14 02:31:10;;;;;;;31.15;15.43;;;;;;;1.89;100.00;99483.91;1751471;82;20959;-80
2021/10/14 02:33:37;;;;;;;26.48;14.78;;;;;;;1.86;100.00;99484.44;1751530;82;20959;-76
2021/10/14 02:36:05;;;;;;;28.70;15.28;;;;;;;1.85;100.00;99485.51;1750464;82;20888;-76
2021/10/14 02:38:32;;;;;;;30.82;15.35;;;;;;;1.83;100.00;99488.48;1748694;82;21026;-76
2021/10/14 02:40:59;;;;;;;27.70;13.78;;;;;;;1.83;100.00;99492.53;1748416;82;21905;-76
2021/10/14 02:43:26;;;;;;;31.27;14.00;;;;;;;1.81;100.00;99487.92;1748263;82;21415;-76
2021/10/14 02:45:52;;;;;;;24.85;14.10;;;;;;;1.79;100.00;99489.25;1748450;82;21545;-75
2021/10/14 02:48:19;;;;;;;26.40;14.10;;;;;;;1.79;100.00;99496.84;1748317;82;20975;-77
2021/10/14 02:50:46;;;;;;;25.12;14.10;;;;;;;1.79;100.00;99491.42;1748419;82;20985;-76
2021/10/14 02:53:12;;;;;;;29.80;14.70;;;;;;;1.76;100.00;99498.70;1748404;82;21086;-76
2021/10/14 02:55:38;;;;;;;28.52;14.98;;;;;;;1.76;100.00;99505.47;1743643;81;20989;-75
2021/10/14 02:58:05;;;;;;;28.77;15.72;;;;;;;1.74;100.00;99510.87;1723136;83;21466;-77
2021/10/14 03:00:33;;;;;;;27.22;16.20;;;;;;;1.71;100.00;99516.29;1692438;84;20944;-75
2021/10/14 03:03:00;;;;;;;28.83;16.67;;;;;;;1.71;100.00;99512.23;1702911;84;20955;-75
2021/10/14 03:05:26;;;;;;;26.42;12.75;;;;;;;1.70;100.00;99523.31;1726120;83;21143;-75
2021/10/14 03:07:53;;;;;;;31.07;15.15;;;;;;;1.70;100.00;99527.38;1692393;84;20991;-75
2021/10/14 03:10:20;;;;;;;33.35;15.10;;;;;;;1.67;100.00;99526.53;1700442;83;20958;-75
2021/10/14 03:12:48;;;;;;;32.15;13.88;;;;;;;1.65;100.00;99522.20;1697769;84;20962;-74
2021/10/14 03:15:15;;;;;;;26.15;14.68;;;;;;;1.64;100.00;99521.09;1730350;82;21501;-75
2021/10/14 03:17:41;;;;;;;29.25;15.28;;;;;;;1.62;100.00;99524.60;1730208;83;21201;-74
2021/10/14 03:20:10;;;;;;;27.82;15.72;;;;;;;1.63;100.00;99524.88;1730554;83;20876;-75
2021/10/14 03:22:37;;;;;;;31.20;16.20;;;;;;;1.62;100.00;99525.41;1729949;82;21006;-77
2021/10/14 03:25:04;;;;;;;23.95;14.23;;;;;;;1.63;100.00;99527.59;1730459;81;21002;-74
2021/10/14 03:27:31;;;;;;;30.05;15.53;;;;;;;1.63;100.00;99538.41;1730484;83;20966;-76
2021/10/14 03:29:58;;;;;;;26.02;14.18;;;;;;;1.63;100.00;99531.64;1730773;83;20982;-76
2021/10/14 03:32:24;;;;;;;31.05;15.50;;;;;;;1.63;100.00;99538.41;1729988;82;20970;-75
2021/10/14 03:34:51;;;;;;;31.25;15.40;;;;;;;1.63;100.00;99543.28;1730677;83;21033;-76
2021/10/14 03:37:17;;;;;;;26.97;15.90;;;;;;;1.64;100.00;99549.52;1730348;82;20950;-75
2021/10/14 03:39:44;;;;;;;32.70;15.63;;;;;;;1.64;100.00;99546.81;1730613;82;21581;-76
2021/10/14 03:42:10;;;;;;;26.20;14.35;;;;;;;1.66;100.00;99547.37;1730501;83;21126;-75
2021/10/14 03:44:37;;;;;;;27.45;15.20;;;;;;;1.66;100.00;99546.02;1730379;81;20884;-76
2021/10/14 03:47:03;;;;;;;28.52;15.23;;;;;;;1.65;100.00;99546.55;1730319;83;20947;-76
2021/10/14 03:49:29;;;;;;;32.08;15.60;;;;;;;1.65;100.00;99553.31;1730780;83;21439;-76
2021/10/14 03:51:57;;;;;;;32.17;15.23;;;;;;;1.66;100.00;99555.48;1709771;83;20939;-72
2021/10/14 03:54:23;;;;;;;35.10;16.10;;;;;;;1.67;100.00;99565.23;1730630;83;22224;-73
2021/10/14 03:56:50;;;;;;;27.82;15.45;;;;;;;1.65;100.00;99559.27;1746786;81;20841;-75
2021/10/14 03:59:17;;;;;;;33.50;17.35;;;;;;;1.62;100.00;99567.36;1753933;81;20927;-73
2021/10/14 04:01:44;;;;;;;36.95;17.02;;;;;;;1.62;100.00;99568.71;1753590;81;20971;-75
2021/10/14 04:04:11;;;;;;;36.03;18.00;;;;;;;1.64;100.00;99569.81;1752583;81;20860;-72
2021/10/14 04:06:40;;;;;;;33.13;17.55;;;;;;;1.66;100.00;99573.08;1752715;81;21175;-74
2021/10/14 04:09:08;;;;;;;39.30;18.25;;;;;;;1.69;100.00;99573.09;1730068;81;20887;-75
2021/10/14 04:11:35;;;;;;;27.73;15.45;;;;;;;1.70;100.00;99576.91;1748684;81;21058;-74
2021/10/14 04:14:02;;;;;;;34.35;18.67;;;;;;;1.71;100.00;99570.42;1748166;82;20991;-70
2021/10/14 04:16:28;;;;;;;35.85;18.52;;;;;;;1.73;100.00;99577.74;1748276;82;20967;-70
2021/10/14 04:18:55;;;;;;;34.40;17.42;;;;;;;1.75;100.00;99580.16;1748443;80;21849;-78
2021/10/14 04:21:22;;;;;;;33.02;18.55;;;;;;;1.78;100.00;99585.88;1748113;82;21029;-76
2021/10/14 04:23:49;;;;;;;33.08;16.97;;;;;;;1.81;100.00;99584.02;1748238;82;20900;-73
2021/10/14 04:26:16;;;;;;;27.40;14.95;;;;;;;1.84;100.00;99585.39;1748231;82;20974;-85
2021/10/14 04:28:42;;;;;;;34.43;18.55;;;;;;;1.87;100.00;99592.99;1748386;82;20928;-73
2021/10/14 04:31:09;;;;;;;33.00;16.70;;;;;;;1.89;100.00;99594.37;1748259;82;21550;-77
2021/10/14 04:33:36;;;;;;;34.98;18.15;;;;;;;1.92;100.00;99595.20;1748275;82;20935;-80
2021/10/14 04:36:04;;;;;;;28.95;16.52;;;;;;;1.94;100.00;99598.47;1748066;82;21004;-74
2021/10/14 04:38:32;;;;;;;32.17;16.85;;;;;;;1.96;100.00;99593.62;1748004;82;21589;-83
2021/10/14 04:40:59;;;;;;;39.48;17.73;;;;;;;2.00;100.00;99596.63;1748332;82;20880;-74
2021/10/14 04:43:27;;;;;;;37.90;18.62;;;;;;;2.04;100.00;99596.93;1747997;82;21167;-84
2021/10/14 04:45:53;;;;;;;34.95;17.62;;;;;;;2.10;100.00;99604.02;1726268;82;20945;-69
2021/10/14 04:48:20;;;;;;;35.70;18.82;;;;;;;2.17;100.00;99612.74;1748203;82;20931;-71
2021/10/14 04:50:47;;;;;;;34.30;18.35;;;;;;;2.23;100.00;99615.77;1748043;80;21470;-70
2021/10/14 04:53:13;;;;;;;39.83;18.45;;;;;;;2.29;100.00;99616.09;1748604;82;20904;-69
2021/10/14 04:55:40;;;;;;;33.88;18.23;;;;;;;2.36;100.00;99631.55;1748194;82;21051;-70
2021/10/14 04:58:07;;;;;;;34.18;17.30;;;;;;;2.43;100.00;99625.38;1748361;82;20944;-70
2021/10/14 05:00:36;;;;;;;35.70;19.15;;;;;;;2.51;100.00;99629.49;1746398;81;21023;-70
2021/10/14 05:03:02;;;;;;;33.02;17.95;;;;;;;2.60;100.00;99632.81;1704558;82;21639;-69
2021/10/14 05:05:29;;;;;;;34.55;17.25;;;;;;;2.71;100.00;99643.72;1721860;83;21474;-69
2021/10/14 05:07:56;;;;;;;31.80;17.32;;;;;;;2.80;100.00;99646.22;1689194;85;21187;-69
2021/10/14 05:10:24;;;;;;;38.58;19.05;;;;;;;2.90;100.00;99652.48;1735194;81;20974;-68
2021/10/14 05:12:50;;;;;;;37.15;19.98;;;;;;;2.96;100.00;99649.27;1710423;83;21398;-69
2021/10/14 05:15:17;;;;;;;33.70;17.92;;;;;;;3.01;100.00;99658.78;1699061;82;20947;-70
2021/10/14 05:17:44;;;;;;;32.50;18.00;;;;;;;3.08;100.00;99656.65;1721363;83;21002;-68
2021/10/14 05:20:12;;;;;;;39.10;19.20;;;;;;;3.13;100.00;99658.03;1689311;85;21218;-68
2021/10/14 05:22:38;;;;;;;32.38;17.73;;;;;;;3.15;100.00;99654.52;1721212;83;20936;-68
2021/10/14 05:25:07;;;;;;;36.33;17.32;;;;;;;3.20;100.00;99656.44;1689165;85;20900;-68
2021/10/14 05:27:34;;;;;;;35.58;19.25;;;;;;;3.25;100.00;99659.17;1721804;83;20952;-69
2021/10/14 05:30:02;;;;;;;38.53;20.00;;;;;;;3.31;100.00;99659.47;1689257;84;21471;-69
2021/10/14 05:32:28;;;;;;;32.93;18.42;;;;;;;3.38;100.00;99664.65;1721393;83;21162;-69
2021/10/14 05:34:55;;;;;;;33.42;18.15;;;;;;;3.46;100.00;99672.28;1689148;85;20975;-68
2021/10/14 05:37:22;;;;;;;36.23;19.50;;;;;;;3.53;100.00;99670.92;1689332;84;20967;-69
2021/10/14 05:39:49;;;;;;;35.40;19.17;;;;;;;3.60;100.00;99672.03;1720566;83;20987;-72
2021/10/14 05:42:16;;;;;;;37.38;18.32;;;;;;;3.68;100.00;99681.02;1706313;83;21009;-68
2021/10/14 05:44:42;;;;;;;39.23;19.25;;;;;;;3.80;100.00;99685.67;1720835;83;21116;-68
2021/10/14 05:47:09;;;;;;;32.03;17.85;;;;;;;3.89;100.00;99682.70;1688475;85;20880;-68
2021/10/14 05:49:36;;;;;;;39.20;18.52;;;;;;;4.01;100.00;99679.73;1721034;83;21007;-71
2021/10/14 05:52:04;;;;;;;36.70;19.55;;;;;;;4.26;100.00;99678.92;1688662;84;21022;-69
2021/10/14 05:54:32;;;;;;;36.70;19.85;;;;;;;4.26;100.00;99678.92;1698190;83;21549;-69
2021/10/14 05:56:59;;;;;;;28.92;16.82;;;;;;;4.37;100.00;99686.00;1689800;83;21126;-69
2021/10/14 05:59:27;;;;;;;37.35;19.17;;;;;;;4.48;100.00;99691.71;1691153;84;21647;-69
2021/10/14 06:01:54;;;;;;;34.60;18.82;;;;;;;4.48;100.00;99691.71;1690984;84;21081;-67
2021/10/14 06:04:20;;;;;;;40.92;20.37;;;;;;;4.57;100.00;99700.95;1701240;83;21059;-70
2021/10/14 06:06:47;;;;;;;40.85;20.43;;;;;;;4.62;100.00;99703.64;1721448;83;21478;-69
2021/10/14 06:09:13;;;;;;;34.67;18.95;;;;;;;4.78;100.00;99706.35;1721666;82;21145;-70
2021/10/14 06:11:41;;;;;;;32.83;18.23;;;;;;;4.78;100.00;99706.35;1721170;83;20996;-69
2021/10/14 06:14:07;;;;;;;35.33;18.90;;;;;;;4.89;100.00;99712.05;1691127;84;21589;-68
2021/10/14 06:16:35;;;;;;;38.25;20.80;;;;;;;4.95;100.00;99704.16;1757693;81;20970;-74
2021/10/14 06:19:02;;;;;;;34.38;19.40;;;;;;;4.98;100.00;99706.33;1727185;81;21022;-71
2021/10/14 06:21:29;;;;;;;33.88;18.90;;;;;;;5.05;100.00;99705.50;1725257;82;21160;-76
2021/10/14 06:23:57;;;;;;;34.63;17.30;;;;;;;5.05;100.00;99705.50;1706262;83;20999;-69
2021/10/14 06:26:24;;;;;;;34.10;18.95;;;;;;;5.12;100.00;99715.55;1708388;82;21042;-68
2021/10/14 06:28:51;;;;;;;33.67;18.98;;;;;;;5.15;100.00;99714.19;1709142;83;20947;-69
2021/10/14 06:31:17;;;;;;;32.20;17.87;;;;;;;5.22;100.00;99718.22;1707424;84;21053;-69
2021/10/14 06:33:44;;;;;;;29.60;17.40;;;;;;;5.33;100.00;99723.64;1690346;84;21995;-70
2021/10/14 06:36:11;;;;;;;31.97;17.42;;;;;;;5.40;100.00;99726.89;1661941;84;21004;-69
2021/10/14 06:38:37;;;;;;;32.55;17.17;;;;;;;5.40;99.40;99722.26;1724613;83;21518;-70
2021/10/14 06:41:04;;;;;;;31.57;17.73;;;;;;;5.38;99.01;99723.08;1721553;82;21053;-69
2021/10/14 06:43:31;;;;;;;33.92;18.70;;;;;;;5.36;99.32;99725.81;1721658;83;20994;-70
2021/10/14 06:45:58;;;;;;;33.70;18.92;;;;;;;5.34;98.74;99732.08;1721757;83;21201;-69
2021/10/14 06:48:26;;;;;;;32.67;18.67;;;;;;;5.29;98.48;99737.80;1712357;83;20931;-71
2021/10/14 06:50:54;;;;;;;33.25;17.52;;;;;;;5.30;98.76;99738.08;1695064;83;20949;-69
2021/10/14 06:53:21;;;;;;;32.53;18.15;;;;;;;5.29;98.48;99744.61;1757543;81;21066;-69
2021/10/14 06:55:47;;;;;;;36.20;18.73;;;;;;;5.30;98.71;99746.23;1757824;81;21612;-69
2021/10/14 06:58:14;;;;;;;31.55;18.27;;;;;;;5.32;98.73;99744.60;1732375;81;21138;-69
2021/10/14 07:00:40;;;;;;;27.13;15.58;;;;;;;5.41;99.71;99742.13;1729309;83;21030;-70
2021/10/14 07:03:07;;;;;;;33.92;18.60;;;;;;;5.48;98.88;99750.28;1729601;83;21541;-69
2021/10/14 07:05:34;;;;;;;36.63;18.95;;;;;;;5.53;98.31;99749.45;1725088;83;20991;-70
2021/10/14 07:08:00;;;;;;;35.23;18.37;;;;;;;5.62;98.43;99756.77;1716564;83;21059;-69
2021/10/14 07:10:27;;;;;;;31.52;17.42;;;;;;;5.70;97.85;99748.57;1725858;83;21098;-69
2021/10/14 07:12:56;;;;;;;32.33;18.17;;;;;;;5.88;98.13;99756.64;1686409;84;21016;-69
2021/10/14 07:15:24;;;;;;;29.48;17.85;;;;;;;6.05;97.04;99760.41;1699510;83;20963;-66
2021/10/14 07:17:51;;;;;;;34.55;18.40;;;;;;;6.20;96.53;99754.33;1699380;84;21349;-69
2021/10/14 07:20:18;;;;;;;31.75;16.52;;;;;;;6.38;95.79;99756.09;1711053;82;21546;-71
2021/10/14 07:22:44;;;;;;;29.42;16.40;;;;;;;6.51;94.63;99759.00;1705911;82;21138;-70
2021/10/14 07:25:11;;;;;;;29.10;16.85;;;;;;;6.62;92.17;99761.11;1699731;84;21042;-69
2021/10/14 07:27:38;;;;;;;29.63;17.30;;;;;;;6.65;91.99;99761.09;1699473;84;21012;-67
2021/10/14 07:30:08;;;;;;;26.73;16.00;;;;;;;6.70;91.62;99761.05;1699432;84;20983;-68
2021/10/14 07:32:34;;;;;;;30.57;17.65;;;;;;;6.75;90.68;99769.20;1719630;81;21167;-68
2021/10/14 07:35:04;;;;;;;31.37;18.62;;;;;;;6.79;91.39;99773.80;1713705;83;21208;-70
2021/10/14 07:37:32;;;;;;;29.80;16.42;;;;;;;6.88;90.20;99774.01;1717458;82;21559;-73
2021/10/14 07:40:01;;;;;;;25.82;15.83;;;;;;;7.10;90.90;99768.05;1716875;83;21038;-68
2021/10/14 07:42:27;;;;;;;31.12;16.10;;;;;;;7.59;92.18;99769.16;1716441;83;21164;-69
2021/10/14 07:44:54;;;;;;;27.90;15.72;;;;;;;8.10;86.81;99771.25;1721407;83;20963;-69
2021/10/14 07:47:21;;;;;;;29.95;15.48;;;;;;;8.32;85.83;99771.50;1718027;83;21216;-68
2021/10/14 07:49:48;;;;;;;27.05;14.87;;;;;;;8.48;82.91;99768.02;1715992;83;20981;-68
2021/10/14 07:52:15;;;;;;;24.70;14.95;;;;;;;8.54;81.24;99770.39;1722055;83;21050;-69
2021/10/14 07:54:42;;;;;;;27.70;14.85;;;;;;;8.63;79.99;99776.00;1716614;81;21556;-69
2021/10/14 07:57:10;;;;;;;28.65;15.00;;;;;;;8.74;79.64;99785.66;1728978;81;21008;-69
2021/10/14 07:59:38;;;;;;;21.97;13.85;;;;;;;8.85;78.69;99788.49;1752384;81;23302;-69
2021/10/14 08:02:05;;;;;;;26.37;14.63;;;;;;;8.94;77.71;99787.26;1756011;81;21645;-69
2021/10/14 08:04:31;;;;;;;27.77;15.30;;;;;;;9.01;78.68;99782.21;1752464;81;21558;-69
2021/10/14 08:06:58;;;;;;;29.00;13.98;;;;;;;9.16;77.95;99783.33;1747279;80;20995;-69
2021/10/14 08:09:25;;;;;;;22.75;14.58;;;;;;;9.28;77.57;99782.81;1751370;81;21068;-69
2021/10/14 08:11:53;;;;;;;26.10;14.70;;;;;;;9.42;76.85;99782.28;1746183;81;21077;-70
2021/10/14 08:14:22;;;;;;;29.48;14.73;;;;;;;9.80;76.90;99785.67;1738783;81;21074;-70
2021/10/14 08:16:50;;;;;;;26.97;15.10;;;;;;;10.43;75.86;99778.56;1738585;81;21039;-69
2021/10/14 08:19:17;;;;;;;25.62;13.83;;;;;;;10.85;71.64;99774.00;1750739;81;21058;-70
2021/10/14 08:21:45;;;;;;;25.30;12.65;;;;;;;11.19;69.84;99779.45;1756770;81;21038;-72
2021/10/14 08:24:15;;;;;;;20.62;12.55;;;;;;;11.61;69.67;99783.54;1756204;81;21319;-69
2021/10/14 08:26:41;;;;;;;23.57;13.38;;;;;;;12.07;66.82;99772.66;1753863;81;21534;-69
2021/10/14 08:29:08;;;;;;;21.02;11.75;;;;;;;12.34;64.82;99768.80;1754869;81;21003;-69
2021/10/14 08:31:35;;;;;;;23.73;13.28;;;;;;;12.22;63.31;99773.55;1756083;81;21291;-70
2021/10/14 08:34:02;;;;;;;22.02;13.05;;;;;;;11.96;62.74;99775.45;1751893;81;21075;-70
2021/10/14 08:36:30;;;;;;;22.45;12.03;;;;;;;11.64;63.92;99791.16;1758379;81;21557;-69
2021/10/14 08:38:57;;;;;;;21.68;11.97;;;;;;;11.37;64.89;99787.25;1758762;81;21031;-66
2021/10/14 08:41:24;;;;;;;23.02;13.90;;;;;;;11.37;65.25;99791.37;1758687;81;21030;-71
2021/10/14 08:43:50;;;;;;;23.75;14.00;;;;;;;11.46;65.06;99784.79;1758490;81;21185;-68
2021/10/14 08:46:17;;;;;;;21.48;13.38;;;;;;;11.45;65.79;99790.05;1758116;81;21503;-74
2021/10/14 08:48:45;;;;;;;25.43;14.00;;;;;;;11.48;64.89;99786.66;1755958;81;21080;-71
2021/10/14 08:51:11;;;;;;;24.85;13.38;;;;;;;11.39;65.09;99790.49;1741504;81;21031;-70
2021/10/14 08:53:47;;;;;;;27.27;13.45;;;;;;;11.37;64.99;99791.37;1736433;80;20963;-73
2021/10/14 08:56:13;;;;;;;22.02;13.08;;;;;;;11.34;64.02;99796.13;1760849;81;21038;-75
2021/10/14 08:58:40;;;;;;;20.52;12.58;;;;;;;11.28;64.62;99789.13;1762182;81;21584;-74
2021/10/14 09:01:13;;;;;;;22.22;11.78;;;;;;;11.45;65.09;99784.55;1759766;81;21147;-70
2021/10/14 09:03:49;;;;;;;26.25;13.85;;;;;;;11.88;62.83;99788.87;1758899;80;21028;-72
2021/10/14 09:06:17;;;;;;;29.30;13.75;;;;;;;12.19;62.51;99791.52;1760069;81;21042;-69
2021/10/14 09:08:46;;;;;;;24.47;14.05;;;;;;;12.59;61.85;99787.86;1761318;81;21018;-68
2021/10/14 09:11:27;;;;;;;23.40;14.85;;;;;;;12.82;60.00;99790.11;1753500;81;21050;-70
2021/10/14 09:13:57;;;;;;;26.40;14.50;;;;;;;12.71;59.76;99790.78;1752075;82;22126;-70
2021/10/14 09:16:37;;;;;;;26.62;14.30;;;;;;;12.55;60.21;99789.07;1752056;81;20939;-70
2021/10/14 09:19:19;;;;;;;20.68;12.82;;;;;;;12.64;60.74;99791.27;1751794;82;21003;-76
2021/10/14 09:22:02;;;;;;;22.37;13.38;;;;;;;13.04;59.10;99788.31;1751818;81;38874;-74
2021/10/14 09:24:35;;;;;;;23.95;13.78;;;;;;;13.46;59.03;99797.65;1752039;82;20963;-71
2021/10/14 09:27:05;;;;;;;22.15;14.05;;;;;;;13.72;57.41;99801.70;1752009;82;21992;-79
2021/10/14 09:29:33;;;;;;;22.42;12.70;;;;;;;13.65;56.95;99800.84;1751803;82;20987;-70
2021/10/14 09:32:03;;;;;;;24.60;12.05;;;;;;;13.50;57.19;99804.13;1751998;82;21632;-69
2021/10/14 09:34:39;;;;;;;19.40;12.93;;;;;;;13.34;56.27;99801.65;1751964;82;21000;-70
2021/10/14 09:37:16;;;;;;;23.27;12.33;;;;;;;13.42;55.98;99802.20;1751946;82;20987;-74
2021/10/14 09:40:09;;;;;;;21.27;12.40;;;;;;;13.60;55.48;99799.64;1745322;81;21166;-69
2021/10/14 09:43:01;;;;;;;21.80;11.83;;;;;;;13.57;54.37;99803.63;1713012;83;20940;-76
2021/10/14 09:45:33;;;;;;;19.70;10.65;;;;;;;13.46;54.66;99801.22;1691381;83;21054;-73
2021/10/14 09:48:15;;;;;;;22.00;10.63;;;;;;;13.41;54.50;99804.14;1717287;83;21050;-68
2021/10/14 09:50:44;;;;;;;21.27;12.00;;;;;;;13.08;54.30;99795.60;1748464;81;21022;-68
2021/10/14 09:53:17;;;;;;;;;;;;;;;12.60;55.46;99797.17;1743232;81;21104;-73
2021/10/14 09:55:44;;;;;;;30.05;11.95;;;;;;;12.20;56.29;99806.09;1748171;81;20201;-74
2021/10/14 09:58:12;;;;;;;19.05;11.12;;;;;;;11.87;57.55;99810.63;1744057;81;20975;-72
2021/10/14 10:00:40;;;;;;;20.95;11.75;;;;;;;12.04;58.20;99808.50;1734848;82;21062;-71
2021/10/14 10:03:10;;;;;;;20.55;11.28;;;;;;;12.50;57.82;99807.94;1731914;82;21089;-71
2021/10/14 10:05:39;;;;;;;17.75;10.38;;;;;;;12.69;57.43;99815.09;1725016;82;21471;-69
2021/10/14 10:08:13;;;;;;;21.48;10.30;;;;;;;12.69;56.04;99803.50;1743571;82;21557;-72
2021/10/14 10:10:44;;;;;;;16.90;10.40;;;;;;;12.64;55.00;99801.47;1714952;81;20956;-72
2021/10/14 10:13:13;;;;;;;15.95;9.35;;;;;;;12.50;55.87;99805.19;1713477;83;21034;-70
2021/10/14 10:15:43;;;;;;;18.32;9.78;;;;;;;12.41;55.69;99804.36;1713779;81;21026;-69
2021/10/14 10:18:37;;;;;;;20.08;10.58;;;;;;;12.24;54.75;99807.08;1718873;83;21133;-69
2021/10/14 10:21:04;;;;;;;18.12;9.60;;;;;;;12.00;55.27;99809.46;1698312;82;21010;-72
2021/10/14 10:23:48;;;;;;;21.30;9.58;;;;;;;11.97;55.43;99818.34;1697759;84;21153;-71
2021/10/14 10:26:41;;;;;;;20.52;9.10;;;;;;;12.26;56.87;99815.82;1697337;84;20944;-73
2021/10/14 10:29:22;;;;;;;12.98;7.72;;;;;;;12.73;54.21;99816.03;1697930;84;21043;-74
2021/10/14 10:32:06;;;;;;;12.43;7.72;;;;;;;12.76;52.61;99816.77;1697679;84;21159;-78
2021/10/14 10:34:48;;;;;;;16.70;6.97;;;;;;;12.63;53.79;99811.68;1697646;84;21479;-77
2021/10/14 10:37:35;;;;;;;12.07;6.95;;;;;;;12.62;52.68;99822.45;1697613;84;21018;-77
2021/10/14 10:40:21;;;;;;;11.85;6.55;;;;;;;12.47;52.49;99818.22;1698213;84;21032;-77
2021/10/14 10:43:07;;;;;;;10.50;6.00;;;;;;;12.25;51.70;99818.33;1697457;84;21081;-73
2021/10/14 10:45:49;;;;;;;10.78;6.42;;;;;;;11.98;51.91;99823.53;1696937;84;21078;-74
2021/10/14 10:48:36;;;;;;;9.00;5.97;;;;;;;11.76;52.31;99816.13;1697255;84;20951;-71
2021/10/14 10:51:08;;;;;;;11.43;5.85;;;;;;;12.03;53.37;99814.33;1697333;84;21514;-70
2021/10/14 10:53:45;;;;;;;8.38;4.75;;;;;;;12.80;49.74;99810.85;1698345;81;21015;-70
2021/10/14 10:56:37;;;;;;;7.20;4.85;;;;;;;13.62;47.71;99822.19;1687001;84;21019;-70
2021/10/14 10:59:08;;;;;;;12.18;5.50;;;;;;;14.14;45.00;99831.62;1712875;83;21168;-68
2021/10/14 11:01:35;;;;;;;11.18;5.17;;;;;;;14.07;45.55;99826.61;1740458;81;20995;-72
2021/10/14 11:04:07;;;;;;;34.88;6.75;;;;;;;13.69;46.24;99826.63;1750884;81;21521;-82
2021/10/14 11:06:46;;;;;;;10.40;6.05;;;;;;;13.44;46.75;99838.53;1713656;81;20950;-69
2021/10/14 11:09:14;;;;;;;10.68;5.67;;;;;;;13.27;46.39;99846.86;1722988;82;21027;-72
2021/10/14 11:11:52;;;;;;;11.28;5.58;;;;;;;13.45;46.59;99839.58;1744381;81;21175;-73
2021/10/14 11:14:18;;;;;;;9.30;5.08;;;;;;;13.91;46.07;99844.05;1749123;82;20991;-70
2021/10/14 11:16:45;;;;;;;9.73;4.67;;;;;;;14.51;45.51;99846.53;1751571;81;20991;-70
2021/10/14 11:19:20;;;;;;;6.12;3.75;;;;;;;15.14;42.77;99840.42;1722941;81;21034;-70
2021/10/14 11:21:46;;;;;;;8.58;4.60;;;;;;;15.62;39.39;99842.56;1717483;83;21060;-70
2021/10/14 11:24:15;;;;;;;5.60;3.55;;;;;;;15.82;38.23;99843.08;1715041;82;21218;-70
2021/10/14 11:26:43;;;;;;;4.15;3.10;;;;;;;15.88;36.89;99844.23;1753919;81;21031;-69